航空気象通報

ウインドサーファーのための航空気象通報による風予報です。

3/31-4/1の航空気象通報(国内、海外)

2009年03月31日 22時59分50秒 | TAF
羽田空港
TAF RJTT 310847Z 3109/0112 21012KT 9999 FEW020 SCT030 BKN040
BECMG 3118/3121 35008KT
BECMG 0100/0103 14012KT
BECMG 0109/0112 34018KT
TEMPO 0109/0112 SHRA
日本時間31日18時-1日03時:210度から12ノットの風
03-06時:風が変化
06-09時:350度から8ノットの風
09-12時:風が変化
12-18時:140度から12ノットの風
18-21時:風が変化
21時:340度から18ノットの風

但し、1日18-21時の間:一時、

那覇空港
TAF ROAH 310838Z 3109/0112 01018KT 9999 FEW015 BKN045
TEMPO 3109/3112 01020G30KT
日本時間31日18時-1日21時:010度から18ノットの風
但し、31日18-21時の間:一時、010度から20ノット、突風30ノット


マウイのカフルイ空港
PHOG 311136Z 3112/0112 05013G18KT P6SM FEW050
FM311900 05020G30KT P6SM FEW040
FM010700 05013G18KT P6SM FEW040
ハワイ時間31日02-09時:050度から13ノット、突風18ノット
09-21時:050度から20ノット、突風30ノット
21時-1日02時:050度から13ノット、突風18ノット


サイパン空港
PGSN 311120Z 3112/0112 06011KT P6SM SCT023
マリアナ時間31日22時-1日22時:060度から11ノットの風

コメント

3/30-31の航空気象通報(国内、海外)

2009年03月30日 20時13分16秒 | TAF
羽田空港
TAF RJTT 300840Z 3009/3112 12010KT 9999 FEW030 SCT040
BECMG 3018/3021 02006KT
BECMG 3100/3103 16012KT
日本時間30日18時-31日03時:120度から10ノットの風
03-06時:風が変化
06-09時:020度から6ノットの風
09-12時:風が変化
12-21時:160度から12ノットの風


那覇空港
TAF ROAH 300842Z 3009/3112 08008KT 9999 FEW015 SCT020 BKN045
BECMG 3012/3014 11004KT
BECMG 3021/3024 34006KT
TEMPO 3021/3024 4000 SHRA
BECMG 3106/3109 01016KT
日本時間30日18-21時:080度から8ノットの風
21-23時:風が変化
23時-31日06時110度から4ノットの風
06-09時:風が変化
09-15時:340度から6ノットの風
15-18時:風が変化
18-21時:010度から16ノットの風

但し、31日06-09時の間:一時、

マウイのカフルイ空港
PHOG 301134Z 3012/3112 05015KT P6SM FEW035 SCT070
FM301900 05018G28KT P6SM FEW030 SCT050
FM310600 04012KT P6SM FEW035 SCT070
ハワイ時間30日02-09時:050度から15ノットの風
09-20時:050度から18ノット、突風28ノット
20時-31日02時:040度から12ノットの風


サイパン空港
PGSN 301120Z 3012/3112 08011KT P6SM SCT020
マリアナ時間30日22時-31日22時:080度から11ノットの風
コメント

3/29-30の航空気象通報(国内、海外)

2009年03月29日 22時16分28秒 | TAF
羽田空港
TAF RJTT 290844Z 2909/3012 09016KT 9999 FEW030 BKN050
BECMG 2911/2913 04014KT
BECMG 3003/3006 12010KT
日本時間29日18-20時:090度から16ノットの風
20-22時:風が変化
22時-30日12時:040度から14ノットの風
12-15時:風が変化
15-21時:120度から10ノットの風


那覇空港
TAF ROAH 290835Z 2909/3012 12005KT 9999 FEW010 BKN045
BECMG 2911/2913 05012KT
日本時間29日18-20時:120度から5ノットの風
20-22時:風が変化
22時-30日21時:050度から12ノットの風


マウイのカフルイ空港
PHOG 291127Z 2912/3012 05013KT P6SM VCSH SCT040
FM291800 04017G27KT P6SM VCSH SCT050
ハワイ時間29日02-08時:050度から13ノットの風
08時-30日02時:040度から17ノット、突風27ノット


サイパン空港
PGSN 291120Z 2912/3012 07010KT P6SM VCSH SCT020 SCT040
マリアナ時間29日22時-30日22時:070度から10ノットの風
コメント

3/28-29の航空気象通報(国内、海外)

2009年03月28日 18時57分25秒 | TAF
羽田空港-修正予報
TAF AMD RJTT 281108Z 2811/2912 13012KT 9999 FEW030 SCT050
BECMG 2812/2814 35018KT
BECMG 2903/2906 10010KT
日本時間28日20-21時:130度から12ノットの風
21-23時:風が変化
23時-29日12時:350度から18ノットの風
12-15時:風が変化
15-21時:100度から10ノットの風


那覇空港
TAF ROAH 280849Z 2809/2912 22018KT 9999 FEW010 BKN040
BECMG 2811/2813 35016KT
日本時間28日18-20時:220度から18ノットの風
20-22時:風が変化
22時-29日21時:350度から16ノットの風


マウイのカフルイ空港
PHOG 281123Z 2812/2912 05013KT P6SM FEW040
TEMPO 2812/2815 05014G20KT
FM281800 04020G30KT P6SM FEW040 SCT060
FM290600 04014G20KT P6SM FEW050
ハワイ時間28日02-08時:050度から13ノットの風
08-20時:040度から20ノット、突風30ノット
20時-29日02時:040度から14ノット、突風20ノット


サイパン空港
PGSN 281135Z 2812/2912 06011KT P6SM VCSH SCT020
マリアナ時間28日22時-29日22時:060度から11ノットの風
コメント

3/27-28の航空気象通報(国内、海外)

2009年03月27日 21時10分34秒 | TAF
羽田空港
TAF RJTT 270843Z 2709/2812 36018KT 9999 FEW030 SCT050
TEMPO 2718/2724 34020G30KT
BECMG 2803/2806 14010KT
BECMG 2809/2812 31010KT
日本時間27日18時-28日12時:360度から18ノットの風
但し、28日03-09時の間:一時、340度から20ノット、突風30ノット
12-15時:風が変化
15-18時:140度から10ノットの風
18-21時:風が変化
21時:310度から10ノットの風


那覇空港
TAF ROAH 270839Z 2709/2812 16008KT 9999 FEW030 SCT045
BECMG 2809/2812 24012KT
TEMPO 2809/2812 4000 SHRA SCT010 FEW020CB BKN025
日本時間27日18時-28日18時:160度から8ノットの風
18-21時:風が変化
21時:240度から12ノットの風

但し、28日18-21時の間:一時、

マウイのカフルイ空港
PHOG 271130Z 2712/2812 05012KT P6SM FEW040
FM272000 06018G28KT P6SM FEW040
FM280600 05012KT P6SM FEW040
ハワイ時間27日02-10時:050度から12ノットの風
10-20時:060度から18ノット、突風28ノット
20時-28日02時:050度から12ノットの風


サイパン空港
PGSN 271145Z 2712/2812 07011KT P6SM VCSH SCT020 SCT050
マリアナ時間27日22時-28日22時:070度から11ノットの風

コメント